Time;durP1;ratioP1;P1;durP2;ratioP2;P2;SDS_P1;SDS_P2;PMS_P1;PMS_P2;Temp;Humidity;BMP_temperature;BMP_pressure;BME280_temperature;BME280_humidity;BME280_pressure;Samples;Min_cycle;Max_cycle;Signal;HPM_P1;HPM_P2
2022/08/26 00:00:46;;;;;;;12.83;10.00;;;20.50;99.90;;;;;;5072207;28;20179;-81
2022/08/26 00:03:13;;;;;;;11.33;10.10;;;20.50;99.90;;;;;;5070279;28;20255;-81
2022/08/26 00:05:39;;;;;;;15.10;10.57;;;20.50;99.90;;;;;;5071847;28;20635;-82
2022/08/26 00:08:06;;;;;;;12.50;9.73;;;20.40;99.90;;;;;;5071936;28;20654;-81
2022/08/26 00:10:33;;;;;;;10.73;9.13;;;20.40;99.90;;;;;;5072054;28;20507;-82
2022/08/26 00:12:58;;;;;;;10.80;9.70;;;20.40;99.90;;;;;;5072254;28;20229;-81
2022/08/26 00:15:24;;;;;;;11.60;9.80;;;20.40;99.90;;;;;;5071248;28;20183;-81
2022/08/26 00:17:51;;;;;;;10.97;9.60;;;20.40;99.90;;;;;;5071502;28;20229;-80
2022/08/26 00:20:21;;;;;;;11.10;8.93;;;20.40;99.90;;;;;;5071655;28;20254;-81
2022/08/26 00:22:47;;;;;;;11.57;9.87;;;20.40;99.90;;;;;;5071536;28;20262;-81
2022/08/26 00:25:14;;;;;;;13.33;9.97;;;20.40;99.90;;;;;;5071809;28;20254;-81
2022/08/26 00:27:40;;;;;;;14.73;9.83;;;20.50;99.90;;;;;;5069782;28;20183;-82
2022/08/26 00:30:09;;;;;;;10.70;9.70;;;20.40;99.90;;;;;;5071733;28;20174;-81
2022/08/26 00:32:35;;;;;;;12.10;10.43;;;20.40;99.90;;;;;;5071963;28;20182;-81
2022/08/26 00:35:01;;;;;;;11.70;10.07;;;20.40;99.90;;;;;;5070718;28;20179;-81
2022/08/26 00:37:27;;;;;;;11.40;9.00;;;20.40;99.90;;;;;;5071567;28;20179;-82
2022/08/26 00:39:53;;;;;;;10.70;9.70;;;20.40;99.90;;;;;;5071879;28;20564;-81
2022/08/26 00:42:19;;;;;;;11.90;10.70;;;20.40;99.90;;;;;;5080281;28;20730;-82
2022/08/26 00:44:45;;;;;;;11.47;10.27;;;20.40;99.90;;;;;;5083880;28;20183;-82
2022/08/26 00:47:21;;;;;;;12.03;10.00;;;20.30;99.90;;;;;;5071780;28;20183;-81
2022/08/26 00:49:50;;;;;;;13.70;10.37;;;20.30;99.90;;;;;;5071717;28;20578;-81
2022/08/26 00:52:18;;;;;;;11.23;10.13;;;20.30;99.90;;;;;;5071766;28;20181;-82
2022/08/26 00:55:07;;;;;;;10.70;9.43;;;20.20;99.90;;;;;;5069453;28;20179;-82
2022/08/26 00:57:35;;;;;;;11.63;9.97;;;20.20;99.90;;;;;;5070755;28;20214;-81
2022/08/26 01:00:09;;;;;;;11.07;9.90;;;20.20;99.90;;;;;;5069682;28;20923;-82
2022/08/26 01:02:35;;;;;;;14.10;10.50;;;20.20;99.90;;;;;;5071126;28;20199;-82
2022/08/26 01:05:03;;;;;;;10.50;9.47;;;20.10;99.90;;;;;;5070049;28;20569;-82
2022/08/26 01:07:31;;;;;;;12.80;10.30;;;20.10;99.90;;;;;;5070578;28;20163;-82
2022/08/26 01:09:59;;;;;;;10.63;9.57;;;20.10;99.90;;;;;;5071453;28;20163;-83
2022/08/26 01:12:30;;;;;;;13.47;10.47;;;20.10;99.90;;;;;;5069700;28;20186;-82
2022/08/26 01:14:56;;;;;;;10.73;9.77;;;20.00;99.90;;;;;;5071187;28;20171;-82
2022/08/26 01:17:22;;;;;;;13.33;9.83;;;20.00;99.90;;;;;;5069678;28;20187;-82
2022/08/26 01:20:24;;;;;;;12.40;10.47;;;20.00;99.90;;;;;;5070066;28;20203;-82
2022/08/26 01:23:03;;;;;;;11.23;10.13;;;20.10;99.90;;;;;;5070817;28;20495;-82
2022/08/26 01:25:32;;;;;;;12.63;10.57;;;20.00;99.90;;;;;;5070050;28;20171;-82
2022/08/26 01:28:02;;;;;;;12.33;10.50;;;20.10;99.90;;;;;;5071460;28;20168;-82
2022/08/26 01:30:30;;;;;;;12.40;10.43;;;20.10;99.90;;;;;;5070585;28;20179;-82
2022/08/26 01:32:59;;;;;;;12.10;10.40;;;20.10;99.90;;;;;;5069416;28;20250;-82
2022/08/26 01:35:26;;;;;;;10.57;9.43;;;20.00;99.90;;;;;;5070781;28;20167;-82
2022/08/26 01:37:54;;;;;;;15.00;10.23;;;20.10;99.90;;;;;;5070438;28;20167;-82
2022/08/26 01:40:30;;;;;;;11.27;10.03;;;20.10;99.90;;;;;;5070678;28;20163;-82
2022/08/26 01:42:58;;;;;;;12.97;10.20;;;20.00;99.90;;;;;;5071021;28;20623;-82
2022/08/26 01:45:27;;;;;;;11.73;10.53;;;20.00;99.90;;;;;;5070862;28;20702;-82
2022/08/26 01:47:56;;;;;;;12.50;10.43;;;20.00;99.90;;;;;;5069991;28;20521;-82
2022/08/26 01:50:25;;;;;;;12.63;10.90;;;20.00;99.90;;;;;;5069083;28;20303;-82
2022/08/26 01:52:53;;;;;;;10.87;9.77;;;20.00;99.90;;;;;;5070214;28;20175;-82
2022/08/26 01:55:20;;;;;;;12.07;10.00;;;20.00;99.90;;;;;;5070315;28;20919;-82
2022/08/26 01:57:50;;;;;;;11.00;9.87;;;19.90;99.90;;;;;;5070258;28;20227;-82
2022/08/26 02:00:17;;;;;;;13.57;10.53;;;19.90;99.90;;;;;;5070541;28;20187;-83
2022/08/26 02:02:45;;;;;;;12.00;10.17;;;19.80;99.90;;;;;;5070254;28;20250;-82
2022/08/26 02:05:16;;;;;;;14.83;11.03;;;19.80;99.90;;;;;;5070375;28;20214;-82
2022/08/26 02:07:43;;;;;;;13.07;10.10;;;19.80;99.90;;;;;;5070578;28;20522;-82
2022/08/26 02:10:10;;;;;;;13.37;10.40;;;19.90;99.90;;;;;;5070232;28;20175;-82
2022/08/26 02:12:36;;;;;;;11.33;10.00;;;19.90;99.90;;;;;;5069241;28;20627;-82
2022/08/26 02:15:07;;;;;;;11.47;10.10;;;19.90;99.90;;;;;;5068511;28;20186;-81
2022/08/26 02:17:44;;;;;;;12.63;10.57;;;19.90;99.90;;;;;;5070088;28;20155;-81
2022/08/26 02:20:14;;;;;;;11.57;10.47;;;19.80;99.90;;;;;;5070678;28;20175;-82
2022/08/26 02:22:43;;;;;;;15.67;10.90;;;19.80;99.90;;;;;;5072786;28;20258;-80
2022/08/26 02:25:35;;;;;;;11.07;9.83;;;19.70;99.90;;;;;;5077267;28;20189;-82
2022/08/26 02:28:01;;;;;;;11.70;10.33;;;19.70;99.90;;;;;;5071155;28;20167;-82
2022/08/26 02:30:30;;;;;;;11.90;10.57;;;19.60;99.90;;;;;;5070222;28;20216;-82
2022/08/26 02:33:02;;;;;;;11.07;9.43;;;19.60;99.90;;;;;;5069789;28;20211;-82
2022/08/26 02:35:30;;;;;;;12.33;10.13;;;19.60;99.90;;;;;;5069278;28;20220;-82
2022/08/26 02:37:56;;;;;;;12.87;10.17;;;19.60;99.90;;;;;;5069607;28;20610;-82
2022/08/26 02:40:27;;;;;;;10.77;9.53;;;19.60;99.90;;;;;;5069427;28;20585;-82
2022/08/26 02:42:54;;;;;;;10.90;9.80;;;19.50;99.90;;;;;;5069587;28;20213;-82
2022/08/26 02:45:19;;;;;;;10.47;9.37;;;19.50;99.90;;;;;;5069430;28;20229;-82
2022/08/26 02:47:46;;;;;;;11.97;10.60;;;19.50;99.90;;;;;;5069570;28;20606;-82
2022/08/26 02:50:13;;;;;;;12.57;10.77;;;19.50;99.90;;;;;;5069512;28;20771;-83
2022/08/26 02:52:39;;;;;;;11.83;10.53;;;19.40;99.90;;;;;;5069630;28;20217;-82
2022/08/26 02:55:05;;;;;;;13.07;10.73;;;19.50;99.90;;;;;;5068943;28;20164;-82
2022/08/26 02:57:31;;;;;;;14.93;10.10;;;19.50;99.90;;;;;;5069281;28;20233;-83
2022/08/26 02:59:59;;;;;;;12.10;10.60;;;19.60;99.90;;;;;;5069368;28;20203;-83
2022/08/26 03:02:25;;;;;;;14.23;11.30;;;19.60;99.90;;;;;;5069192;28;20195;-83
2022/08/26 03:04:51;;;;;;;13.33;11.00;;;19.60;99.90;;;;;;5069307;28;20261;-82
2022/08/26 03:07:17;;;;;;;11.37;10.13;;;19.60;99.90;;;;;;5069135;28;20598;-82
2022/08/26 03:09:42;;;;;;;11.63;10.53;;;19.60;99.90;;;;;;5069274;28;20229;-84
2022/08/26 03:12:08;;;;;;;11.30;10.13;;;19.50;99.90;;;;;;5069385;28;20198;-83
2022/08/26 03:14:34;;;;;;;11.23;10.07;;;19.50;99.90;;;;;;5068802;28;20167;-82
2022/08/26 03:16:59;;;;;;;11.23;10.03;;;19.60;99.90;;;;;;5068807;28;20175;-85
2022/08/26 03:19:25;;;;;;;12.40;9.93;;;19.60;99.90;;;;;;5068880;28;20199;-83
2022/08/26 03:21:52;;;;;;;12.00;10.30;;;19.60;99.90;;;;;;5070501;28;20179;-83
2022/08/26 03:24:19;;;;;;;10.93;9.93;;;19.70;99.90;;;;;;5073280;28;20190;-82
2022/08/26 03:26:45;;;;;;;11.60;10.00;;;19.60;99.90;;;;;;5072465;28;20164;-83
2022/08/26 03:31:55;;;;;;;11.90;10.53;;;19.70;99.90;;;;;;5073068;28;20281;-84
2022/08/26 03:34:22;;;;;;;15.67;10.47;;;19.70;99.90;;;;;;5072605;28;20190;-82
2022/08/26 03:36:49;;;;;;;13.80;9.97;;;19.70;99.90;;;;;;5072580;28;20250;-83
2022/08/26 03:39:14;;;;;;;13.20;10.33;;;19.70;99.90;;;;;;5073144;28;20203;-83
2022/08/26 03:41:40;;;;;;;11.03;9.93;;;19.60;99.90;;;;;;5072955;28;20175;-83
2022/08/26 03:44:09;;;;;;;14.03;10.23;;;19.60;99.90;;;;;;5072733;28;20688;-84
2022/08/26 03:46:35;;;;;;;13.53;10.13;;;19.60;99.90;;;;;;5072138;28;20171;-81
2022/08/26 03:49:03;;;;;;;11.37;9.97;;;19.60;99.90;;;;;;5072725;28;20179;-80
2022/08/26 03:51:30;;;;;;;13.87;10.17;;;19.70;99.90;;;;;;5071457;28;20214;-82
2022/08/26 03:53:57;;;;;;;15.40;10.13;;;19.60;99.90;;;;;;5072684;28;20251;-82
2022/08/26 03:56:23;;;;;;;11.70;10.60;;;19.60;99.90;;;;;;5072170;28;20673;-82
2022/08/26 03:58:49;;;;;;;11.10;10.00;;;19.60;99.90;;;;;;5072345;28;20230;-81
2022/08/26 04:01:15;;;;;;;11.10;9.87;;;19.70;99.90;;;;;;5072284;28;20171;-82
2022/08/26 04:03:59;;;;;;;12.53;10.63;;;19.60;99.90;;;;;;5072264;28;20179;-82
2022/08/26 04:06:30;;;;;;;13.40;10.43;;;19.70;99.90;;;;;;5084091;28;20167;-81
2022/08/26 04:08:59;;;;;;;10.53;9.43;;;19.60;99.90;;;;;;5085196;28;20183;-82
2022/08/26 04:11:30;;;;;;;12.13;9.77;;;19.60;99.90;;;;;;5072987;28;20174;-82
2022/08/26 04:14:00;;;;;;;13.47;10.63;;;19.60;99.90;;;;;;5071383;28;20156;-82
2022/08/26 04:16:27;;;;;;;14.67;10.67;;;19.60;99.90;;;;;;5071327;28;20253;-82
2022/08/26 04:18:53;;;;;;;11.83;10.57;;;19.60;99.90;;;;;;5071420;28;20234;-83
2022/08/26 04:21:19;;;;;;;13.70;10.50;;;19.60;99.90;;;;;;5071967;28;20179;-83
2022/08/26 04:23:45;;;;;;;14.97;10.77;;;19.50;99.90;;;;;;5071822;28;20179;-82
2022/08/26 04:26:11;;;;;;;15.70;11.13;;;19.50;99.90;;;;;;5071823;28;20175;-82
2022/08/26 04:28:37;;;;;;;11.03;9.93;;;19.60;99.90;;;;;;5071716;28;20175;-82
2022/08/26 04:31:03;;;;;;;11.60;10.00;;;19.60;99.90;;;;;;5071579;28;20187;-83
2022/08/26 04:33:28;;;;;;;11.17;10.00;;;19.60;99.90;;;;;;5071712;28;20203;-83
2022/08/26 04:36:02;;;;;;;11.80;10.27;;;19.60;99.90;;;;;;5069874;28;20673;-82
2022/08/26 04:38:29;;;;;;;13.87;11.00;;;19.70;99.90;;;;;;5070271;28;20293;-83
2022/08/26 04:40:55;;;;;;;11.47;10.20;;;19.70;99.90;;;;;;5071110;28;20175;-83
2022/08/26 04:43:21;;;;;;;12.33;10.30;;;19.70;99.90;;;;;;5071893;28;20175;-83
2022/08/26 04:45:47;;;;;;;11.87;10.40;;;19.80;99.90;;;;;;5069844;28;20186;-82
2022/08/26 04:48:12;;;;;;;12.73;10.13;;;19.80;99.90;;;;;;5071349;28;20176;-82
2022/08/26 04:50:39;;;;;;;14.43;10.43;;;19.80;99.90;;;;;;5071562;28;20502;-82
2022/08/26 04:53:04;;;;;;;11.73;10.53;;;19.90;99.90;;;;;;5071300;28;20171;-82
2022/08/26 04:55:30;;;;;;;17.37;10.07;;;19.90;99.90;;;;;;5071411;28;20794;-85
2022/08/26 04:57:56;;;;;;;13.73;11.10;;;19.90;99.90;;;;;;5070928;28;20238;-83
2022/08/26 05:00:22;;;;;;;14.40;10.50;;;19.90;99.90;;;;;;5071557;28;20210;-82
2022/08/26 05:02:48;;;;;;;13.77;11.40;;;19.90;99.90;;;;;;5071342;28;20171;-83
2022/08/26 05:05:14;;;;;;;18.03;11.80;;;20.00;99.90;;;;;;5071442;28;20175;-82
2022/08/26 05:07:40;;;;;;;13.87;10.97;;;20.00;99.90;;;;;;5072822;28;20867;-83
2022/08/26 05:10:08;;;;;;;16.60;10.50;;;20.00;99.90;;;;;;5071720;28;20627;-82
2022/08/26 05:12:34;;;;;;;14.43;11.50;;;20.00;99.90;;;;;;5070942;28;20170;-82
2022/08/26 05:15:00;;;;;;;14.87;11.30;;;19.90;99.90;;;;;;5071246;28;20290;-82
2022/08/26 05:17:26;;;;;;;13.33;10.90;;;19.90;99.90;;;;;;5071314;28;20639;-82
2022/08/26 05:19:52;;;;;;;13.43;11.53;;;19.90;99.90;;;;;;5071497;28;20199;-83
2022/08/26 05:22:18;;;;;;;11.97;10.40;;;19.90;99.90;;;;;;5070989;28;20228;-82
2022/08/26 05:24:45;;;;;;;12.33;10.30;;;19.90;99.90;;;;;;5071008;28;20172;-82
2022/08/26 05:27:12;;;;;;;13.20;10.57;;;20.00;99.90;;;;;;5069332;28;20190;-83
2022/08/26 05:29:39;;;;;;;16.93;10.87;;;20.10;99.90;;;;;;5070747;28;20167;-84
2022/08/26 05:32:05;;;;;;;12.10;10.67;;;20.10;99.90;;;;;;5070819;28;20643;-83
2022/08/26 05:34:31;;;;;;;17.23;11.27;;;20.20;99.90;;;;;;5071253;28;20202;-83
2022/08/26 05:36:57;;;;;;;16.90;11.53;;;20.20;99.90;;;;;;5072527;28;20175;-83
2022/08/26 05:39:24;;;;;;;15.80;11.20;;;20.20;99.90;;;;;;5070435;28;20199;-83
2022/08/26 05:41:49;;;;;;;12.87;11.20;;;20.30;99.90;;;;;;5070852;28;20183;-83
2022/08/26 05:44:17;;;;;;;14.93;11.73;;;20.40;99.90;;;;;;5070633;28;20647;-84
2022/08/26 05:46:44;;;;;;;13.93;11.13;;;20.50;99.90;;;;;;5084598;28;20163;-82
2022/08/26 05:49:12;;;;;;;14.97;11.40;;;20.50;99.90;;;;;;5084956;28;20185;-83
2022/08/26 05:51:40;;;;;;;11.63;10.47;;;20.50;99.90;;;;;;5071927;28;20175;-83
2022/08/26 05:54:06;;;;;;;11.07;9.97;;;20.60;99.90;;;;;;5070668;28;20176;-84
2022/08/26 05:56:31;;;;;;;11.47;10.23;;;20.60;99.90;;;;;;5070453;28;20167;-83
2022/08/26 05:59:01;;;;;;;13.83;10.33;;;20.70;99.90;;;;;;5070274;28;20769;-83
2022/08/26 06:01:28;;;;;;;12.60;10.40;;;20.90;99.90;;;;;;5070292;28;20238;-82
2022/08/26 06:04:00;;;;;;;13.97;10.03;;;20.90;99.90;;;;;;5070046;28;20199;-83
2022/08/26 06:06:31;;;;;;;13.57;9.23;;;21.00;99.90;;;;;;5070107;28;20163;-81
2022/08/26 06:08:59;;;;;;;12.60;9.47;;;21.00;99.90;;;;;;5071697;28;20170;-84
2022/08/26 06:11:27;;;;;;;10.93;9.70;;;21.00;99.90;;;;;;5072083;28;20175;-83
2022/08/26 06:13:54;;;;;;;14.77;9.80;;;21.00;99.90;;;;;;5073179;28;20722;-83
2022/08/26 06:16:22;;;;;;;15.93;9.33;;;21.10;99.90;;;;;;5071368;28;20650;-83
2022/08/26 06:18:49;;;;;;;13.60;9.77;;;21.20;99.90;;;;;;5071508;28;20206;-83
2022/08/26 06:21:26;;;;;;;12.83;9.83;;;21.30;99.90;;;;;;5071234;28;20236;-83
2022/08/26 06:26:45;;;;;;;10.90;9.43;;;21.40;99.90;;;;;;5068912;28;20178;-83
2022/08/26 06:29:11;;;;;;;10.63;9.03;;;21.50;99.90;;;;;;5069511;28;20182;-84
2022/08/26 06:31:37;;;;;;;14.77;8.73;;;21.50;99.90;;;;;;5068378;28;20207;-83
2022/08/26 06:34:04;;;;;;;11.00;9.63;;;21.60;99.90;;;;;;5073173;28;20638;-84
2022/08/26 06:36:31;;;;;;;12.30;9.80;;;21.60;99.90;;;;;;5069601;28;20176;-84
2022/08/26 06:39:01;;;;;;;10.17;9.10;;;21.60;99.90;;;;;;5069462;28;20280;-83
2022/08/26 06:41:27;;;;;;;10.53;9.40;;;21.70;99.90;;;;;;5068611;28;20325;-83
2022/08/26 06:43:53;;;;;;;9.90;8.90;;;21.70;99.90;;;;;;5069865;28;20805;-83
2022/08/26 06:46:21;;;;;;;11.00;9.83;;;21.70;99.90;;;;;;5070039;28;20259;-84
2022/08/26 06:48:47;;;;;;;12.30;9.30;;;21.70;99.90;;;;;;5069814;28;20278;-84
2022/08/26 06:51:21;;;;;;;10.17;9.07;;;21.90;99.90;;;;;;5068620;28;20659;-82
2022/08/26 06:53:48;;;;;;;13.03;8.83;;;21.90;99.90;;;;;;5072260;28;20619;-84
2022/08/26 06:56:18;;;;;;;9.93;8.93;;;;;;;;;;5069675;28;20659;-84
2022/08/26 06:58:44;;;;;;;10.20;8.73;;;22.20;99.90;;;;;;5072833;28;20249;-82
2022/08/26 07:01:31;;;;;;;12.03;8.47;;;22.30;99.90;;;;;;5073635;28;20595;-83
2022/08/26 07:03:59;;;;;;;12.07;9.38;;;22.40;99.90;;;;;;5074061;28;20159;-84
2022/08/26 07:06:26;;;;;;;12.07;8.83;;;22.40;99.90;;;;;;5073314;28;20194;-83
2022/08/26 07:09:03;;;;;;;9.57;8.63;;;22.50;99.90;;;;;;5073234;28;20553;-83
2022/08/26 07:11:30;;;;;;;13.10;8.50;;;22.60;99.90;;;;;;5073047;28;20170;-84
2022/08/26 07:13:57;;;;;;;13.32;8.27;;;22.70;99.90;;;;;;5073088;28;20179;-83
2022/08/26 07:16:24;;;;;;;13.55;9.43;;;22.70;99.90;;;;;;5073131;28;20167;-83
2022/08/26 07:18:51;;;;;;;13.15;9.52;;;22.80;99.90;;;;;;5073164;28;20281;-83
2022/08/26 07:21:18;;;;;;;12.45;9.05;;;22.90;99.90;;;;;;5073381;28;20191;-83
2022/08/26 07:23:44;;;;;;;10.25;9.10;;;23.00;99.90;;;;;;5076786;28;20240;-83
2022/08/26 07:26:17;;;;;;;13.10;9.23;;;23.10;99.90;;;;;;5089185;28;20231;-83
2022/08/26 07:28:45;;;;;;;10.20;8.57;;;23.20;99.90;;;;;;5076088;28;20156;-84
2022/08/26 07:31:13;;;;;;;13.85;8.40;;;23.30;99.90;;;;;;5073906;28;20172;-84
2022/08/26 07:33:40;;;;;;;10.88;8.00;;;23.30;99.90;;;;;;5074022;28;20172;-84
2022/08/26 07:36:08;;;;;;;10.27;8.70;;;23.40;99.90;;;;;;5073008;28;20678;-84
2022/08/26 07:38:35;;;;;;;9.77;8.50;;;23.50;99.90;;;;;;5072835;28;20203;-84
2022/08/26 07:41:02;;;;;;;10.15;8.73;;;23.50;99.90;;;;;;5072944;28;20179;-83
2022/08/26 07:43:28;;;;;;;11.10;8.32;;;23.60;99.90;;;;;;5072891;28;20171;-84
2022/08/26 07:45:54;;;;;;;13.05;8.68;;;23.60;99.90;;;;;;5072521;28;20175;-83
2022/08/26 07:48:21;;;;;;;11.93;8.60;;;23.70;99.90;;;;;;5073032;28;20179;-83
2022/08/26 07:50:47;;;;;;;13.85;10.90;;;23.80;99.90;;;;;;5072473;28;20205;-84
2022/08/26 07:53:14;;;;;;;12.73;10.93;;;23.90;99.90;;;;;;5072277;28;20203;-84
2022/08/26 07:55:40;;;;;;;9.60;8.63;;;24.00;99.90;;;;;;5072271;28;20171;-83
2022/08/26 07:58:06;;;;;;;8.98;8.15;;;24.00;99.90;;;;;;5071840;28;20272;-84
2022/08/26 08:00:32;;;;;;;9.20;8.10;;;24.10;99.90;;;;;;5072156;28;20167;-84
2022/08/26 08:02:59;;;;;;;8.73;7.80;;;24.20;99.90;;;;;;5072483;28;20246;-83
2022/08/26 08:05:25;;;;;;;10.85;8.82;;;24.20;99.90;;;;;;5072081;28;20197;-84
2022/08/26 08:07:51;;;;;;;14.13;8.32;;;24.30;99.90;;;;;;5071713;28;20175;-84
2022/08/26 08:10:23;;;;;;;12.00;8.73;;;24.40;99.90;;;;;;5071953;28;20224;-83
2022/08/26 08:12:50;;;;;;;9.95;8.07;;;24.40;99.90;;;;;;5072676;28;20174;-84
2022/08/26 08:15:18;;;;;;;10.38;8.38;;;24.50;99.90;;;;;;5072354;28;20220;-84
2022/08/26 08:17:44;;;;;;;8.80;7.68;;;24.50;99.90;;;;;;5072006;28;20199;-84
2022/08/26 08:20:12;;;;;;;9.32;8.18;;;24.60;99.90;;;;;;5072269;28;20233;-84
2022/08/26 08:22:38;;;;;;;10.60;7.47;;;24.60;99.90;;;;;;5072642;28;20502;-83
2022/08/26 08:25:06;;;;;;;10.73;7.93;;;24.60;99.90;;;;;;5071985;28;20253;-84
2022/08/26 08:27:34;;;;;;;11.63;8.48;;;24.70;99.90;;;;;;5074427;28;20171;-84
2022/08/26 08:30:00;;;;;;;12.43;8.02;;;24.80;99.90;;;;;;5073032;28;20163;-84
2022/08/26 08:32:28;;;;;;;11.70;7.93;;;24.80;99.90;;;;;;5071643;28;20167;-84
2022/08/26 08:34:55;;;;;;;10.63;7.78;;;24.90;99.90;;;;;;5072164;28;20833;-84
2022/08/26 08:37:21;;;;;;;13.32;8.93;;;25.00;99.90;;;;;;5072995;28;20179;-85
2022/08/26 08:39:48;;;;;;;13.98;9.15;;;25.00;99.90;;;;;;5073743;28;20559;-85
2022/08/26 08:42:23;;;;;;;12.02;9.05;;;25.10;99.90;;;;;;5072019;28;20266;-84
2022/08/26 08:44:51;;;;;;;12.85;8.70;;;25.20;99.90;;;;;;5071574;28;20171;-84
2022/08/26 08:47:26;;;;;;;16.90;8.77;;;25.30;99.90;;;;;;5070319;28;20171;-85
2022/08/26 08:49:59;;;;;;;14.40;8.38;;;25.50;99.90;;;;;;5071988;28;20159;-85
2022/08/26 08:52:30;;;;;;;12.90;8.23;;;;;;;;;;5071836;28;20165;-84
2022/08/26 08:54:57;;;;;;;12.98;7.32;;;25.60;99.90;;;;;;5071986;28;20176;-84
2022/08/26 08:57:54;;;;;;;11.45;7.53;;;25.70;99.90;;;;;;5071230;28;20364;-84
2022/08/26 09:00:23;;;;;;;9.80;7.18;;;25.70;99.90;;;;;;5071643;28;20199;-84
2022/08/26 09:03:00;;;;;;;11.68;7.13;;;25.70;99.90;;;;;;5078706;28;20163;-83
2022/08/26 09:05:30;;;;;;;11.70;7.40;;;25.70;99.90;;;;;;5088613;28;20213;-84
2022/08/26 09:08:02;;;;;;;9.77;6.85;;;25.70;99.90;;;;;;5072567;28;20623;-85
2022/08/26 09:10:38;;;;;;;8.43;7.20;;;25.70;99.90;;;;;;5069862;28;20159;-83
2022/08/26 09:13:16;;;;;;;9.45;7.03;;;25.70;99.90;;;;;;5071585;28;20166;-85
2022/08/26 09:15:50;;;;;;;8.85;7.65;;;25.70;99.90;;;;;;5071208;28;20254;-85
2022/08/26 09:18:42;;;;;;;8.80;8.00;;;25.80;99.90;;;;;;5072026;28;20196;-83
2022/08/26 09:21:11;;;;;;;9.68;7.22;;;25.90;99.90;;;;;;5071142;28;20698;-83
2022/08/26 09:23:40;;;;;;;9.43;7.28;;;25.90;99.90;;;;;;5071286;28;20156;-83
2022/08/26 09:26:14;;;;;;;14.50;7.13;;;26.10;99.90;;;;;;5069788;28;20171;-82
2022/08/26 09:28:44;;;;;;;10.75;7.88;;;26.10;99.90;;;;;;5070920;28;20179;-82
2022/08/26 09:31:10;;;;;;;7.82;6.75;;;26.20;99.90;;;;;;5070433;28;20169;-83
2022/08/26 09:33:37;;;;;;;8.20;6.38;;;26.30;99.90;;;;;;5070934;28;20175;-83
2022/08/26 09:36:14;;;;;;;9.05;6.47;;;26.30;99.90;;;;;;5071013;28;20527;-83
2022/08/26 09:38:40;;;;;;;11.38;6.63;;;26.30;99.90;;;;;;5070873;28;20233;-83
2022/08/26 09:41:30;;;;;;;9.93;6.97;;;26.40;99.90;;;;;;5070844;28;20179;-83
2022/08/26 09:44:16;;;;;;;8.80;6.63;;;26.40;99.90;;;;;;5070866;28;20182;-83
2022/08/26 09:46:55;;;;;;;11.10;6.30;;;26.50;99.90;;;;;;5071056;28;20258;-83
2022/08/26 09:49:38;;;;;;;10.13;7.25;;;26.50;99.90;;;;;;5070907;28;20159;-83
2022/08/26 09:52:10;;;;;;;10.10;7.00;;;26.50;99.90;;;;;;5070762;28;20316;-83
2022/08/26 09:54:37;;;;;;;9.10;6.32;;;26.50;99.90;;;;;;5070789;28;20380;-83
2022/08/26 09:57:16;;;;;;;7.15;6.28;;;26.50;99.90;;;;;;5070351;28;20688;-83
2022/08/26 09:59:42;;;;;;;10.00;6.72;;;26.50;99.90;;;;;;5070658;28;20199;-83
2022/08/26 10:02:33;;;;;;;10.82;6.57;;;26.60;99.90;;;;;;5069019;28;20638;-82
2022/08/26 10:05:02;;;;;;;13.27;7.18;;;26.70;99.90;;;;;;5070197;28;20203;-83
2022/08/26 10:07:42;;;;;;;7.28;6.57;;;26.80;99.90;;;;;;5070338;28;20170;-84
2022/08/26 10:10:19;;;;;;;10.40;6.82;;;26.90;99.90;;;;;;5070066;28;20583;-83
2022/08/26 10:12:57;;;;;;;9.93;6.55;;;26.90;99.90;;;;;;5070408;28;20258;-83
2022/08/26 10:15:25;;;;;;;10.02;6.43;;;26.90;99.90;;;;;;5070425;28;20159;-83
2022/08/26 10:18:09;;;;;;;9.68;6.55;;;27.00;99.90;;;;;;5070348;28;20638;-83
2022/08/26 10:20:40;;;;;;;10.38;6.63;;;27.00;99.90;;;;;;5070463;28;20198;-83
2022/08/26 10:23:13;;;;;;;10.60;6.75;;;26.90;99.90;;;;;;5071618;28;20164;-83
2022/08/26 10:25:52;;;;;;;10.50;6.25;;;27.00;99.90;;;;;;5071388;28;20562;-83
2022/08/26 10:28:34;;;;;;;8.60;6.57;;;26.90;99.90;;;;;;5070139;28;20198;-83
2022/08/26 10:31:14;;;;;;;7.68;6.28;;;27.00;99.60;;;;;;5071294;28;20198;-83
2022/08/26 10:33:40;;;;;;;9.88;6.30;;;27.00;99.90;;;;;;5072919;28;20163;-83
2022/08/26 10:36:47;;;;;;;9.30;6.40;;;27.20;99.90;;;;;;5074157;28;20252;-83
2022/08/26 10:39:02;;;;;;;6.93;6.13;;;27.20;99.90;;;;;;5074407;28;20215;-83
2022/08/26 10:41:35;;;;;;;8.27;6.25;;;27.30;99.90;;;;;;5077411;28;20246;-83
2022/08/26 10:44:04;;;;;;;7.88;5.97;;;27.30;99.90;;;;;;5093706;28;20275;-84
2022/08/26 10:46:41;;;;;;;8.00;5.85;;;27.30;99.00;;;;;;5073943;28;20516;-84
2022/08/26 10:49:13;;;;;;;10.95;6.28;;;27.30;99.20;;;;;;5073968;28;20201;-83
2022/08/26 10:51:46;;;;;;;9.27;5.78;;;27.40;98.00;;;;;;5073873;28;20198;-83
2022/08/26 10:54:28;;;;;;;9.27;5.90;;;27.40;98.00;;;;;;5073796;28;20216;-83
2022/08/26 10:56:59;;;;;;;7.97;5.55;;;27.40;98.30;;;;;;5073688;28;20239;-83
2022/08/26 10:59:50;;;;;;;9.63;5.88;;;27.40;98.60;;;;;;5073490;28;20210;-84
2022/08/26 11:02:30;;;;;;;12.38;5.18;;;27.40;97.00;;;;;;5073546;28;20167;-84
2022/08/26 11:05:03;;;;;;;11.07;5.55;;;27.40;97.10;;;;;;5072047;28;20186;-84
2022/08/26 11:07:45;;;;;;;7.15;5.15;;;27.40;97.70;;;;;;5073441;28;20175;-83
2022/08/26 11:10:11;;;;;;;9.38;5.68;;;27.50;96.50;;;;;;5073860;28;20258;-83
2022/08/26 11:12:40;;;;;;;8.40;5.40;;;27.50;96.90;;;;;;5073013;28;20197;-83
2022/08/26 11:15:19;;;;;;;10.38;5.25;;;27.50;96.50;;;;;;5073188;28;20205;-83
2022/08/26 11:17:45;;;;;;;9.07;5.45;;;27.50;96.30;;;;;;5073351;28;20171;-83
2022/08/26 11:20:34;;;;;;;12.25;5.55;;;27.70;96.40;;;;;;5073350;28;20597;-83
2022/08/26 11:23:13;;;;;;;8.18;5.25;;;27.90;96.20;;;;;;5072008;28;20167;-83
2022/08/26 11:26:03;;;;;;;6.20;5.40;;;28.00;96.20;;;;;;5072853;28;20171;-83
2022/08/26 11:28:37;;;;;;;10.30;4.95;;;27.90;96.70;;;;;;5073103;28;20646;-83
2022/08/26 11:31:09;;;;;;;9.85;5.03;;;28.00;95.70;;;;;;5073292;28;20174;-83
2022/08/26 11:33:52;;;;;;;9.68;4.88;;;28.00;94.40;;;;;;5072586;28;20647;-83
2022/08/26 11:36:33;;;;;;;10.00;4.93;;;27.90;94.20;;;;;;5072627;28;20197;-83
2022/08/26 11:39:11;;;;;;;11.52;5.10;;;27.90;94.70;;;;;;5072528;28;20556;-83
2022/08/26 11:41:45;;;;;;;10.63;4.95;;;28.00;94.00;;;;;;5072490;28;20159;-83
2022/08/26 11:44:17;;;;;;;8.30;4.40;;;28.00;93.80;;;;;;5071424;28;20198;-83
2022/08/26 11:46:53;;;;;;;12.35;4.60;;;28.00;93.20;;;;;;5072431;28;20647;-83
2022/08/26 11:49:19;;;;;;;9.65;4.68;;;28.00;92.50;;;;;;5072782;28;20517;-83
2022/08/26 11:51:45;;;;;;;14.00;5.38;;;28.10;92.30;;;;;;5072709;28;20200;-83
2022/08/26 11:54:14;;;;;;;9.10;5.13;;;28.10;93.00;;;;;;5072365;28;20585;-83
2022/08/26 11:56:41;;;;;;;13.35;5.10;;;28.20;93.20;;;;;;5072645;28;20525;-83
2022/08/26 11:59:11;;;;;;;8.85;4.70;;;28.10;92.70;;;;;;5072286;28;20693;-84
2022/08/26 12:01:42;;;;;;;7.47;5.05;;;28.10;92.70;;;;;;5072394;28;20206;-83
2022/08/26 12:04:19;;;;;;;10.20;5.03;;;28.10;92.90;;;;;;5072595;28;20187;-83
2022/08/26 12:06:49;;;;;;;9.52;4.63;;;28.20;92.40;;;;;;5072707;28;20262;-83
2022/08/26 12:09:30;;;;;;;11.00;4.97;;;28.30;92.50;;;;;;5074071;28;20164;-84
2022/08/26 12:12:13;;;;;;;11.40;5.68;;;28.40;93.20;;;;;;5078859;28;20174;-83
2022/08/26 12:14:40;;;;;;;14.23;5.53;;;28.50;93.30;;;;;;5072794;28;20174;-83
2022/08/26 12:17:17;;;;;;;8.05;4.43;;;28.60;93.60;;;;;;5072658;28;20198;-83
2022/08/26 12:19:44;;;;;;;9.65;5.05;;;28.70;93.20;;;;;;5073567;28;20237;-83
2022/08/26 12:22:24;;;;;;;9.20;4.82;;;28.70;93.20;;;;;;5081654;28;20186;-83
2022/08/26 12:24:57;;;;;;;12.05;5.13;;;28.70;91.90;;;;;;5084722;28;20167;-85
2022/08/26 12:27:32;;;;;;;11.68;4.80;;;28.60;92.30;;;;;;5072515;28;20237;-83
2022/08/26 12:30:12;;;;;;;13.13;5.15;;;28.70;92.10;;;;;;5071668;28;20177;-83
2022/08/26 12:32:42;;;;;;;6.32;4.82;;;28.60;91.20;;;;;;5071901;28;20190;-83
2022/08/26 12:35:13;;;;;;;13.43;5.20;;;28.60;91.10;;;;;;5071599;28;20240;-84
2022/08/26 12:37:46;;;;;;;7.90;4.93;;;28.60;91.40;;;;;;5071547;28;20175;-84
2022/08/26 12:40:41;;;;;;;14.80;5.25;;;28.60;91.60;;;;;;5071795;28;20207;-83
2022/08/26 12:43:09;;;;;;;13.15;4.57;;;28.60;91.80;;;;;;5071769;28;20190;-84
2022/08/26 12:45:41;;;;;;;11.05;5.32;;;28.60;91.80;;;;;;5070575;28;20183;-84
2022/08/26 12:48:19;;;;;;;10.70;4.70;;;28.60;91.80;;;;;;5071456;28;20171;-85
2022/08/26 12:50:47;;;;;;;12.25;4.25;;;28.70;91.50;;;;;;5071306;28;20213;-83
2022/08/26 12:53:23;;;;;;;13.65;4.50;;;28.70;91.00;;;;;;5071220;28;20175;-83
2022/08/26 12:55:53;;;;;;;8.32;4.28;;;28.70;90.60;;;;;;5071432;28;20172;-84